Aérodrome :
LOGIN :

S'inscrire | Disclaimer

   EN    FR    IT 

 










Légende :    VFR   VFR Marginal   IFR   IFR Intensif   IFR Très Intensif
Visi : 
Plafond : 
>= 8 km
>= 3000ft
5 à 8 km
1000 à 3000 ft
1500m à 5 km
500 à 1000 ft
800 à 1500m
200 à 500 ft
< 800m
< 200 ft
Symboles :   Orages  Brouillard  Fortes neiges  Fortes précipitations  Vent > 20 kt
SIGMETs :   Divers  Orages  Givrage  Turbulence  Onde Orograph.  Cendres Volcan.







- Altitude de l'aérodrome : 479 ft
- Code IATA : DOL
- Voir les cartes d'approche


LFRG - Deauville

DERNIER METAR :
  • 161530Z AUTO 29015KT 9999 ///TCU 07/03 Q1002 TEMPO 27030G45KT 3000 TSRAGS BKN010 BKN015CB

METARs EXPIRÉS :
  • 161500Z AUTO 29018KT 9999 FEW042 SCT090 BKN100 07/04 Q1002 TEMPO 27030G45KT 3000 TSRAGS BKN010 BKN015CB
  • 161430Z AUTO 29020G37KT 8000 -RA FEW018/// SCT027/// BKN037/// ///TCU 07/05 Q1002 TEMPO 27030G45KT 3000 TSRAGS BKN010 BKN015CB
  • 161400Z AUTO 29018KT 9999 SCT025/// BKN034/// OVC042/// ///TCU 06/04 Q1002 TEMPO 27025G40KT 3000 TSRAGS BKN010 BKN015CB
  • 161330Z AUTO 31020G33KT 270V350 9999 RA SCT024/// BKN029/// BKN036/// ///TCU 06/04 Q1002 TEMPO 3000 TSRAGS BKN010 BKN015CB
  • 161300Z AUTO 29022G32KT 9999 FEW023 SCT029 BKN038 08/05 Q1002 TEMPO 3000 SHRA BKN015TCU

TAF TAF LFRG
Valide du 16 à 15h jusqu'au 17 à 00h UTC


161400Z 1615/1624 27020G30KT 9999 BKN030
TEMPO 1615/1624 3000 SHRA BKN015TCU
PROB40
TEMPO 1615/1624 27030G45KT 3000 TSRAGS BKN010 BKN015CB
ATIS : +33 2 31 65 65 36
Pas de NOTAMs connus pour ce terrain.
2 SIGMETs publiés pour la FIR Paris (LFFF) :
 
Turbulence forte
LFFF SIGMET 6 VALID 161600/162000 LFPW
LFFF PARIS FIR/UIR SEV TURB FCST NW OF LINE N5045 E00245 - N4915 W00015 SFC/FL060 STNR NC=
Turbulence forte
LFFF SIGMET 5 VALID 161200/161600 LFPW
LFFF PARIS FIR/UIR SEV TURB FCST WI N4915 W00015 - N5000 W00015 - N5115 E00200 - N5045 E00245 - N4915 W00015 SFC/FL060 STNR NC=



MET'MAP, la Météo Aéronautique d'un coup d'oeil ! - Copyright ORBIFLY Décembre 2007 - Disclaimer

ORBIFLY MET'MAP TEAM :

Programmation & Développement : Alexandra Zaïnal
Conception & Développement : Baudouin d'Aumeries
Co-Programmation & Développement : Marc-Olivier Méhu
Soutien technique & logistique : Manuel Goepfert

Contact : metmap@orbifly.com




SOURCES & CREDITS :

   NOAA